Create Tblcommutelog Verified Points Advance Search
| # | Trip ID | Id Commuter | Trip Date | Trip Num | Current Lat | Current Lng | Delta Distance | Current Time | Activity | Activity Confidence | Current Speed | |
|---|---|---|---|---|---|---|---|---|---|---|---|---|
| 72921 | 251001_776618_16511321_0832 | 776618 | (not set) | (not set) | 38.883848882512 | -77.100458324784 | 0 | 2025-10-01 08:32:13 | unknown | 100 | -0.44703925898772 | |
| 72922 | 251001_780813_16421763_0727 | 780813 | (not set) | (not set) | 38.867484731636 | -77.051642350924 | 17.4071 | 2025-10-01 08:32:14 | in_vehicle | 100 | 2.9459887167291 | |
| 72923 | 251001_780813_16421763_0727 | 780813 | (not set) | (not set) | 38.867484731636 | -77.051642350924 | 17.4071 | 2025-10-01 08:32:14 | in_vehicle | 100 | 2.9459887167291 | |
| 72924 | 251001_781273_16424909_0753 | 781273 | (not set) | (not set) | 38.98916969581 | -77.097025440895 | 0.2318 | 2025-10-01 08:32:14 | on_foot | 100 | 0.84043380689692 | |
| 72925 | 251001_781273_16424909_0753 | 781273 | (not set) | (not set) | 38.98916969581 | -77.097025440895 | 0.2318 | 2025-10-01 08:32:14 | on_foot | 100 | 0.84043380689692 | |
| 72926 | 251001_753546_16500693_0830 | 753546 | (not set) | (not set) | 38.793687352945 | -77.264510951697 | 1.3275 | 2025-10-01 08:32:14 | in_vehicle | 100 | -0.44703925898772 | |
| 72927 | 251001_770164_16511074_0758 | 770164 | (not set) | (not set) | 38.874254487636 | -77.215180372414 | 7.5489 | 2025-10-01 08:32:15 | on_foot | 100 | 3.3215016942788 | |
| 72928 | 251001_784718_16491204_0818 | 784718 | (not set) | (not set) | 39.107555604843 | -77.29879676647 | 7.8303 | 2025-10-01 08:32:15 | in_vehicle | 100 | 1.1399501104187 | |
| 72929 | 251001_784718_16491204_0818 | 784718 | (not set) | (not set) | 39.107555604843 | -77.29879676647 | 7.8303 | 2025-10-01 08:32:15 | in_vehicle | 100 | 1.1399501104187 | |
| 72930 | 251001_781766_16459526_0721 | 781766 | (not set) | (not set) | 38.9134806 | -77.1047714 | 25.8915 | 2025-10-01 08:32:15 | in_vehicle | 100 | 6.3256055146763 | |
| 72931 | 251001_784811_6461772_0800 | 784811 | (not set) | (not set) | 38.887806847431 | -77.079987431837 | 5.3572 | 2025-10-01 08:32:16 | unknown | 100 | 9.213479127737 | |
| 72932 | 251001_776618_16511321_0832 | 776618 | (not set) | (not set) | 38.885147094727 | -77.100540161133 | 0 | 2025-10-01 08:32:16 | on_foot | 100 | -0.44703925898772 | |
| 72933 | 251001_785147_16514010_0713 | 785147 | (not set) | (not set) | 38.97912595979 | -77.441039508582 | 46.6784 | 2025-10-01 08:32:16 | in_vehicle | 100 | 7.5192003361735 | |
| 72934 | 251001_788776_16490874_0750 | 788776 | (not set) | (not set) | 38.575504928061 | -77.264473989895 | 21.834 | 2025-10-01 08:32:15 | in_vehicle | 100 | 14.318667465377 | |
| 72935 | 251001_786593_16511726_0817 | 786593 | (not set) | (not set) | 38.914333518468 | -76.947800206572 | 3.3534 | 2025-10-01 08:32:17 | unknown | 100 | 3.0666893166558 | |
| 72936 | 251001_772317_6438355_0807 | 772317 | (not set) | (not set) | 38.899775652701 | -77.055205441055 | 4.8938 | 2025-10-01 08:32:17 | on_bicycle | 100 | 2.9325775389595 | |
| 72937 | 251001_772317_6438355_0807 | 772317 | (not set) | (not set) | 38.899775652701 | -77.055205441055 | 4.8938 | 2025-10-01 08:32:17 | on_bicycle | 100 | 2.9325775389595 | |
| 72938 | 251001_772317_6438355_0807 | 772317 | (not set) | (not set) | 38.899775652701 | -77.055205441055 | 4.8938 | 2025-10-01 08:32:17 | on_bicycle | 100 | 2.9325775389595 | |
| 72939 | 251001_779990_16500693_0817 | 779990 | (not set) | (not set) | 38.857193873061 | -77.071468457545 | 2.4885 | 2025-10-01 08:32:18 | in_vehicle | 100 | 12.655681421942 | |
| 72940 | 251001_753546_16500693_0830 | 753546 | (not set) | (not set) | 38.793155811382 | -77.263661297806 | 1.3275 | 2025-10-01 08:32:19 | in_vehicle | 100 | -0.44703925898772 |